Time;durP1;ratioP1;P1;durP2;ratioP2;P2;SDS_P1;SDS_P2;PMS_P1;PMS_P2;Temp;Humidity;BMP_temperature;BMP_pressure;BME280_temperature;BME280_humidity;BME280_pressure;Samples;Min_cycle;Max_cycle;Signal;HPM_P1;HPM_P2
2022/09/11 00:02:52;;;;;;;31.13;27.47;;;15.70;99.90;;;;;;5014963;28;20877;-70
2022/09/11 00:06:11;;;;;;;33.67;29.40;;;15.70;99.90;;;;;;5097307;28;21060;-70
2022/09/11 00:09:21;;;;;;;35.77;29.50;;;15.70;99.90;;;;;;5094301;28;20583;-70
2022/09/11 00:12:28;;;;;;;32.80;28.30;;;15.70;99.90;;;;;;5095143;28;20617;-70
2022/09/11 00:15:37;;;;;;;32.00;28.60;;;15.70;99.90;;;;;;5098028;28;20453;-70
2022/09/11 00:18:42;;;;;;;33.10;26.70;;;15.70;99.90;;;;;;5095403;28;20456;-70
2022/09/11 00:21:53;;;;;;;29.60;26.50;;;15.70;99.90;;;;;;5097181;28;20483;-70
2022/09/11 00:25:12;;;;;;;31.03;25.80;;;15.70;99.90;;;;;;5097157;28;20445;-69
2022/09/11 00:28:16;;;;;;;28.37;25.13;;;15.70;99.90;;;;;;5092550;28;20451;-70
2022/09/11 00:31:18;;;;;;;29.40;26.23;;;15.70;99.90;;;;;;5096343;28;20467;-70
2022/09/11 00:37:59;;;;;;;29.30;26.20;;;15.70;99.90;;;;;;5091969;28;20626;-69
2022/09/11 00:41:06;;;;;;;28.53;24.73;;;15.60;99.90;;;;;;5092736;28;20480;-70
2022/09/11 00:44:07;;;;;;;30.33;26.97;;;15.60;99.90;;;;;;5096152;28;20457;-70
2022/09/11 00:47:20;;;;;;;28.90;25.20;;;15.60;99.90;;;;;;5096601;28;20471;-70
2022/09/11 00:50:25;;;;;;;27.70;24.40;;;15.70;99.90;;;;;;5097477;28;20522;-70
2022/09/11 00:56:49;;;;;;;28.30;24.07;;;15.60;99.90;;;;;;5094490;28;20532;-70
2022/09/11 00:59:44;;;;;;;30.60;24.97;;;15.60;99.90;;;;;;5096780;28;20537;-70
2022/09/11 01:02:50;;;;;;;27.57;24.63;;;15.60;99.90;;;;;;5097094;28;20472;-70
2022/09/11 01:05:57;;;;;;;27.03;24.30;;;15.60;99.90;;;;;;5098743;28;20518;-70
2022/09/11 01:08:51;;;;;;;27.30;24.27;;;15.60;99.90;;;;;;5098229;28;20436;-70
2022/09/11 01:12:29;;;;;;;30.10;24.90;;;15.60;99.90;;;;;;5094641;28;20484;-70
2022/09/11 01:19:48;;;;;;;;;;;;;;;;;;;;;
2022/09/11 01:23:07;;;;;;;25.90;23.10;;;15.60;99.90;;;;;;5095324;28;20858;-70
2022/09/11 01:26:37;;;;;;;;;;;;;;;;;;;;;
2022/09/11 01:30:01;;;;;;;25.57;22.87;;;15.60;99.90;;;;;;5084890;28;20987;-70
2022/09/11 01:40:20;;;;;;;28.17;23.73;;;15.60;99.90;;;;;;5091759;28;20455;-70
2022/09/11 01:47:23;;;;;;;28.87;23.30;;;15.60;99.90;;;;;;5098436;28;20863;-70
2022/09/11 01:50:21;;;;;;;31.20;26.47;;;15.60;99.90;;;;;;5095695;28;20486;-70
2022/09/11 01:53:31;;;;;;;28.57;23.57;;;15.60;99.90;;;;;;5091855;28;20489;-70
2022/09/11 01:56:45;;;;;;;32.30;24.73;;;15.60;99.90;;;;;;5093487;28;20493;-70
2022/09/11 01:59:47;;;;;;;29.17;23.60;;;15.60;99.90;;;;;;5085421;28;20457;-70
2022/09/11 02:02:51;;;;;;;30.93;25.20;;;15.60;99.90;;;;;;5089693;28;20483;-70
2022/09/11 02:05:55;;;;;;;29.97;24.77;;;15.60;99.90;;;;;;5084606;28;20685;-70
2022/09/11 02:09:02;;;;;;;32.37;24.80;;;15.60;99.90;;;;;;5096516;28;20520;-70
2022/09/11 02:12:14;;;;;;;31.60;24.87;;;15.60;99.90;;;;;;5095013;28;20465;-72
2022/09/11 02:15:37;;;;;;;33.00;24.50;;;15.60;99.90;;;;;;5097142;28;20452;-70
2022/09/11 02:18:51;;;;;;;31.53;23.00;;;15.70;99.90;;;;;;5092595;28;20444;-70
2022/09/11 02:22:05;;;;;;;30.33;21.93;;;15.70;99.90;;;;;;5094507;28;20464;-70
2022/09/11 02:25:26;;;;;;;28.43;20.17;;;15.70;99.90;;;;;;5095472;28;20573;-70
2022/09/11 02:28:43;;;;;;;27.23;19.50;;;15.70;99.90;;;;;;5095294;28;21407;-70
2022/09/11 02:39:04;;;;;;;27.13;18.20;;;15.60;99.90;;;;;;5090632;28;20452;-70
2022/09/11 02:42:25;;;;;;;26.67;19.40;;;15.70;99.90;;;;;;5092050;28;21003;-70
2022/09/11 02:45:52;;;;;;;26.23;18.30;;;15.60;99.90;;;;;;5097284;28;20544;-70
2022/09/11 02:49:05;;;;;;;26.83;19.43;;;15.60;99.90;;;;;;5095429;28;20505;-70
2022/09/11 02:52:14;;;;;;;25.70;18.63;;;15.60;99.90;;;;;;5087855;28;20491;-70
2022/09/11 02:55:27;;;;;;;26.37;19.37;;;15.60;99.90;;;;;;5096707;28;21277;-70
2022/09/11 02:58:42;;;;;;;26.63;19.30;;;15.60;99.90;;;;;;5092729;28;20456;-70
2022/09/11 03:02:04;;;;;;;27.90;19.93;;;15.60;99.90;;;;;;5093134;28;20490;-70
2022/09/11 03:05:03;;;;;;;26.30;17.73;;;15.60;99.90;;;;;;5095634;28;20812;-70
2022/09/11 03:08:07;;;;;;;26.73;19.10;;;15.60;99.90;;;;;;5095913;28;20464;-70
2022/09/11 03:14:49;;;;;;;24.87;18.17;;;15.60;99.90;;;;;;5093664;28;20468;-70
2022/09/11 03:17:50;;;;;;;26.40;18.13;;;15.50;99.90;;;;;;5092563;28;20464;-70
2022/09/11 03:21:10;;;;;;;;;;;;;;;;;;;;;
2022/09/11 03:24:14;;;;;;;28.47;18.90;;;15.50;99.90;;;;;;5094636;28;20859;-70
2022/09/11 03:27:11;;;;;;;27.67;18.40;;;15.50;99.90;;;;;;5089449;28;20606;-70
2022/09/11 03:30:22;;;;;;;24.63;17.47;;;15.50;99.90;;;;;;5088204;28;20493;-70
2022/09/11 03:33:30;;;;;;;24.10;17.27;;;15.50;99.90;;;;;;5097317;28;20477;-70
2022/09/11 03:36:40;;;;;;;24.33;16.53;;;15.60;99.90;;;;;;5093026;28;20497;-70
2022/09/11 03:39:47;;;;;;;25.00;16.17;;;15.50;99.90;;;;;;5096972;28;20834;-70
2022/09/11 03:46:43;;;;;;;20.70;15.87;;;15.50;99.90;;;;;;5099942;28;20440;-70
2022/09/11 03:49:57;;;;;;;20.30;14.37;;;15.50;99.90;;;;;;5094758;28;20453;-70
2022/09/11 03:53:10;;;;;;;21.20;15.67;;;15.50;99.90;;;;;;5097781;28;20555;-71
2022/09/11 03:56:33;;;;;;;18.63;14.40;;;15.50;99.90;;;;;;5099096;28;20522;-71
2022/09/11 04:02:59;;;;;;;22.30;16.33;;;15.50;99.90;;;;;;5093327;28;20472;-70
2022/09/11 04:06:07;;;;;;;22.40;15.70;;;15.50;99.90;;;;;;5099454;28;20448;-71
2022/09/11 04:09:40;;;;;;;19.27;15.00;;;15.50;99.90;;;;;;5088670;28;20979;-71
2022/09/11 04:13:04;;;;;;;21.17;15.23;;;15.50;99.90;;;;;;5084347;28;20848;-70
2022/09/11 04:16:20;;;;;;;19.20;15.37;;;15.50;99.90;;;;;;5098754;28;20938;-71
2022/09/11 04:19:33;;;;;;;18.93;15.57;;;15.50;99.90;;;;;;5096902;28;20444;-71
2022/09/11 04:22:38;;;;;;;19.13;15.20;;;15.50;99.90;;;;;;5096848;28;21045;-71
2022/09/11 04:25:42;;;;;;;18.37;15.13;;;15.50;99.90;;;;;;5098264;28;20450;-71
2022/09/11 04:29:08;;;;;;;17.90;14.87;;;15.50;99.90;;;;;;5088857;28;20449;-70
2022/09/11 04:32:14;;;;;;;16.43;13.53;;;15.50;99.90;;;;;;5096237;28;20475;-70
2022/09/11 04:35:29;;;;;;;16.87;14.23;;;15.50;99.90;;;;;;5098965;28;20469;-70
2022/09/11 04:38:48;;;;;;;15.00;13.40;;;15.50;99.90;;;;;;5095273;28;21180;-70
2022/09/11 04:41:53;;;;;;;17.63;14.97;;;15.50;99.90;;;;;;5092051;28;20854;-70
2022/09/11 04:45:10;;;;;;;14.50;13.00;;;15.50;99.90;;;;;;5095176;28;20468;-71
2022/09/11 04:48:15;;;;;;;17.70;13.77;;;15.50;99.90;;;;;;5093860;28;20451;-71
2022/09/11 04:51:29;;;;;;;17.23;13.30;;;15.50;99.90;;;;;;5093125;28;20472;-71
2022/09/11 04:54:26;;;;;;;12.13;10.93;;;15.50;99.90;;;;;;5096340;28;20838;-71
2022/09/11 04:57:44;;;;;;;13.97;11.57;;;15.50;99.90;;;;;;5080917;28;20537;-71
2022/09/11 05:00:49;;;;;;;12.47;11.07;;;15.40;99.90;;;;;;5090264;28;20460;-71
2022/09/11 05:04:09;;;;;;;13.23;10.87;;;15.40;99.90;;;;;;5091559;28;20538;-71
2022/09/11 05:07:14;;;;;;;16.30;11.60;;;15.40;99.90;;;;;;5096099;28;20445;-70
2022/09/11 05:10:15;;;;;;;12.50;10.53;;;15.40;99.90;;;;;;5096279;28;20496;-71
2022/09/11 05:13:25;;;;;;;12.10;10.80;;;15.40;99.90;;;;;;5093266;28;20479;-70
2022/09/11 05:16:53;;;;;;;13.47;10.00;;;15.40;99.90;;;;;;5093376;28;20483;-70
2022/09/11 05:19:55;;;;;;;14.80;11.60;;;15.40;99.90;;;;;;5093633;28;20456;-71
2022/09/11 05:23:06;;;;;;;14.57;11.27;;;15.40;99.90;;;;;;5097721;28;20471;-70
2022/09/11 05:26:38;;;;;;;15.23;11.40;;;15.40;99.90;;;;;;5095428;28;20538;-70
2022/09/11 05:29:46;;;;;;;14.90;11.87;;;15.40;99.90;;;;;;5089596;28;21002;-70
2022/09/11 05:33:05;;;;;;;12.90;11.37;;;15.40;99.90;;;;;;5094207;28;20966;-70
2022/09/11 05:36:29;;;;;;;13.30;11.07;;;15.40;99.90;;;;;;5097473;28;20446;-71
2022/09/11 05:39:34;;;;;;;12.13;10.03;;;15.40;99.90;;;;;;5090475;28;20454;-71
2022/09/11 05:42:23;;;;;;;12.73;10.93;;;15.40;99.90;;;;;;5085018;28;20560;-71
2022/09/11 05:45:48;;;;;;;;;;;;;;;;;;;;;
2022/09/11 05:49:05;;;;;;;13.43;11.37;;;15.50;99.90;;;;;;5096276;28;21066;-70
2022/09/11 05:52:51;;;;;;;12.57;11.13;;;15.50;99.90;;;;;;5089702;28;20605;-71
2022/09/11 05:55:57;;;;;;;12.83;11.50;;;15.50;99.90;;;;;;5097160;28;20447;-70
2022/09/11 05:59:01;;;;;;;12.73;10.67;;;15.50;99.90;;;;;;5094700;28;20460;-70
2022/09/11 06:01:51;;;;;;;12.33;10.67;;;15.50;99.90;;;;;;5094674;28;20472;-71
2022/09/11 06:04:43;;;;;;;13.13;11.17;;;15.50;99.90;;;;;;5067144;28;20473;-71
2022/09/11 06:07:33;;;;;;;12.10;10.67;;;15.60;99.90;;;;;;5069215;28;20560;-70
2022/09/11 06:10:25;;;;;;;11.40;10.30;;;15.50;99.90;;;;;;5085912;28;20982;-70
2022/09/11 06:13:25;;;;;;;11.43;10.10;;;15.60;99.90;;;;;;5089448;28;20483;-70
2022/09/11 06:16:17;;;;;;;12.50;11.20;;;15.60;99.90;;;;;;5084130;28;20447;-70
2022/09/11 06:19:06;;;;;;;12.30;11.10;;;15.60;99.90;;;;;;5081752;28;20465;-70
2022/09/11 06:21:57;;;;;;;13.40;12.07;;;15.60;99.90;;;;;;5087281;28;20583;-70
2022/09/11 06:24:45;;;;;;;12.10;10.87;;;15.70;99.90;;;;;;5093803;28;20445;-71
2022/09/11 06:27:37;;;;;;;12.43;11.23;;;15.70;99.90;;;;;;5088943;28;20463;-70
2022/09/11 06:30:27;;;;;;;11.57;10.40;;;15.70;99.90;;;;;;5090104;28;20467;-71
2022/09/11 06:33:24;;;;;;;12.83;11.53;;;15.80;99.90;;;;;;5074453;28;20599;-70
2022/09/11 06:36:14;;;;;;;12.97;11.67;;;15.80;99.90;;;;;;5082335;28;20460;-70
2022/09/11 06:39:06;;;;;;;11.77;10.67;;;15.90;99.90;;;;;;5085119;28;20464;-71
2022/09/11 06:41:54;;;;;;;13.37;11.97;;;15.90;99.90;;;;;;5086692;28;20475;-72
2022/09/11 06:44:42;;;;;;;12.33;11.20;;;15.90;99.90;;;;;;5088947;28;20445;-72
2022/09/11 06:47:35;;;;;;;13.50;10.97;;;15.90;99.90;;;;;;5095750;28;20463;-71
2022/09/11 06:50:25;;;;;;;11.73;10.70;;;15.90;99.90;;;;;;5088183;28;20457;-71
2022/09/11 06:53:14;;;;;;;11.00;10.07;;;16.00;99.90;;;;;;5086170;28;20476;-75
2022/09/11 06:56:05;;;;;;;12.00;10.80;;;16.00;99.90;;;;;;5071323;28;20457;-75
2022/09/11 06:58:54;;;;;;;14.20;12.33;;;16.00;99.90;;;;;;5094293;28;20458;-75
2022/09/11 07:01:43;;;;;;;11.33;10.33;;;16.00;99.90;;;;;;5088434;28;20471;-74
2022/09/11 07:04:31;;;;;;;11.50;10.40;;;16.00;99.90;;;;;;5095093;28;20892;-74
2022/09/11 07:07:19;;;;;;;11.07;10.13;;;16.00;99.90;;;;;;5095706;28;20460;-72
2022/09/11 07:10:09;;;;;;;11.53;10.50;;;16.00;99.90;;;;;;5095602;28;20467;-71
2022/09/11 07:12:59;;;;;;;10.75;9.80;;;16.00;99.90;;;;;;5089576;28;20965;-71
2022/09/11 07:15:48;;;;;;;11.10;9.90;;;16.00;99.90;;;;;;5093729;28;20489;-71
2022/09/11 07:18:39;;;;;;;11.10;10.10;;;16.00;99.90;;;;;;5090641;28;20467;-70
2022/09/11 07:21:30;;;;;;;10.10;9.20;;;16.10;99.90;;;;;;5094203;28;20475;-70
2022/09/11 07:24:20;;;;;;;9.20;8.40;;;16.10;99.90;;;;;;5087641;28;20476;-70
2022/09/11 07:27:09;;;;;;;8.93;8.03;;;16.10;99.90;;;;;;5092997;28;20451;-73
2022/09/11 07:29:58;;;;;;;9.20;8.40;;;16.10;99.90;;;;;;5098752;28;20455;-74
2022/09/11 07:32:49;;;;;;;8.27;7.57;;;16.20;99.90;;;;;;5092695;28;20486;-74
2022/09/11 07:35:37;;;;;;;9.03;8.23;;;16.20;99.90;;;;;;5094587;28;20452;-74
2022/09/11 07:38:28;;;;;;;8.10;7.40;;;16.30;99.90;;;;;;5094706;28;20456;-74
2022/09/11 07:41:18;;;;;;;7.70;7.00;;;16.30;99.90;;;;;;5089995;28;20468;-70
2022/09/11 07:44:07;;;;;;;8.27;7.57;;;16.40;99.90;;;;;;5093300;28;20472;-70
2022/09/11 07:46:57;;;;;;;7.80;7.20;;;16.40;99.90;;;;;;5093864;28;20449;-70
2022/09/11 07:49:46;;;;;;;7.90;7.30;;;16.40;99.90;;;;;;5093834;28;20453;-70
2022/09/11 07:52:35;;;;;;;7.93;7.23;;;16.40;99.90;;;;;;5097518;28;20483;-71
2022/09/11 07:55:23;;;;;;;8.17;7.57;;;16.40;99.90;;;;;;5088802;28;20537;-71
2022/09/11 07:58:13;;;;;;;7.87;7.27;;;16.40;99.90;;;;;;5086724;28;21112;-73
2022/09/11 08:01:02;;;;;;;8.50;7.80;;;16.40;99.90;;;;;;5084697;28;20432;-72
2022/09/11 08:03:57;;;;;;;7.67;7.07;;;16.40;99.90;;;;;;5089179;28;20559;-72
2022/09/11 08:06:45;;;;;;;8.03;7.33;;;16.40;99.90;;;;;;5088730;28;20886;-72
2022/09/11 08:09:34;;;;;;;8.33;7.63;;;16.40;99.90;;;;;;5085095;28;20980;-72
2022/09/11 08:12:23;;;;;;;8.30;7.60;;;16.40;99.90;;;;;;5092408;28;20476;-72
2022/09/11 08:15:11;;;;;;;8.73;8.07;;;16.40;99.90;;;;;;5086696;28;20471;-72
2022/09/11 08:17:59;;;;;;;8.03;7.30;;;16.40;99.90;;;;;;5095477;28;20465;-73
2022/09/11 08:21:00;;;;;;;8.40;7.70;;;16.50;99.90;;;;;;5093874;28;20452;-72
2022/09/11 08:23:48;;;;;;;7.30;6.70;;;16.40;99.90;;;;;;5083242;28;20537;-70
2022/09/11 08:26:37;;;;;;;5.90;5.40;;;16.50;99.90;;;;;;5089153;28;20449;-70
2022/09/11 08:29:25;;;;;;;6.40;5.90;;;16.50;99.90;;;;;;5084090;28;20509;-69
2022/09/11 08:32:13;;;;;;;6.50;6.00;;;16.50;99.90;;;;;;5087258;28;20477;-70
2022/09/11 08:35:05;;;;;;;5.00;4.67;;;16.60;99.90;;;;;;5088858;28;20472;-70
2022/09/11 08:37:55;;;;;;;6.60;6.00;;;16.70;99.90;;;;;;5092411;28;21445;-70
2022/09/11 08:40:46;;;;;;;5.67;5.20;;;16.70;99.90;;;;;;5092467;28;21483;-69
2022/09/11 08:43:44;;;;;;;6.00;5.50;;;16.70;99.90;;;;;;5094523;28;20467;-70
2022/09/11 08:46:38;;;;;;;6.43;5.73;;;16.80;99.90;;;;;;5090156;28;20827;-70
2022/09/11 08:49:30;;;;;;;5.60;5.20;;;16.70;99.90;;;;;;5086656;28;21017;-70
2022/09/11 08:52:18;;;;;;;5.57;5.17;;;16.80;99.90;;;;;;5082031;28;20472;-72
2022/09/11 08:55:14;;;;;;;5.77;5.27;;;16.80;99.90;;;;;;5094550;28;20475;-70
2022/09/11 08:58:11;;;;;;;5.37;4.97;;;16.90;99.90;;;;;;5094741;28;20453;-70
2022/09/11 09:01:10;;;;;;;5.97;5.50;;;16.90;99.90;;;;;;5084771;28;20470;-70
2022/09/11 09:04:20;;;;;;;5.87;5.47;;;17.00;99.90;;;;;;5089528;28;20487;-70
2022/09/11 09:07:18;;;;;;;5.10;4.60;;;17.10;99.90;;;;;;5089446;28;20449;-70
2022/09/11 09:10:19;;;;;;;4.50;4.20;;;17.20;99.90;;;;;;5088539;28;20943;-69
2022/09/11 09:13:18;;;;;;;4.60;4.30;;;17.10;99.90;;;;;;5087659;28;20506;-69
2022/09/11 09:16:21;;;;;;;5.00;4.60;;;17.20;99.90;;;;;;5078837;28;20472;-69
2022/09/11 09:19:14;;;;;;;4.60;4.17;;;17.20;99.90;;;;;;5095232;28;20460;-69
2022/09/11 09:22:10;;;;;;;4.20;3.90;;;17.20;99.90;;;;;;5085158;28;20850;-69
2022/09/11 09:25:03;;;;;;;4.60;4.30;;;17.30;99.90;;;;;;5083610;28;20452;-71
2022/09/11 09:27:56;;;;;;;5.07;4.70;;;17.40;99.90;;;;;;5087059;28;20451;-71
2022/09/11 09:30:51;;;;;;;4.10;3.80;;;;;;;;;;5081888;28;20544;-71
2022/09/11 09:33:44;;;;;;;4.80;4.50;;;;;;;;;;5093616;28;20520;-70
2022/09/11 09:36:36;;;;;;;4.50;4.10;;;;;;;;;;5087475;28;20476;-71
2022/09/11 09:39:25;;;;;;;4.90;4.60;;;;;;;;;;5079844;28;20467;-70
2022/09/11 09:42:34;;;;;;;4.30;4.00;;;;;;;;;;5092081;28;20475;-71
2022/09/11 09:45:34;;;;;;;4.50;4.20;;;;;;;;;;5087563;28;20827;-70
2022/09/11 09:48:26;;;;;;;4.40;4.10;;;;;;;;;;5091806;28;20465;-69
2022/09/11 09:51:15;;;;;;;4.10;3.80;;;;;;;;;;5084666;28;20485;-72
2022/09/11 09:54:04;;;;;;;4.27;3.97;;;;;;;;;;5090406;28;21014;-70
2022/09/11 09:57:02;;;;;;;4.30;4.10;;;;;;;;;;5084177;28;20463;-70
2022/09/11 09:59:53;;;;;;;3.80;3.60;;;;;;;;;;5087352;28;20465;-70
2022/09/11 10:02:44;;;;;;;3.73;3.50;;;;;;;;;;5082699;28;20475;-70
2022/09/11 10:05:33;;;;;;;3.37;3.17;;;;;;;;;;5081121;28;20454;-70
2022/09/11 10:08:30;;;;;;;3.73;3.53;;;;;;;;;;5089312;28;20446;-71
2022/09/11 10:11:28;;;;;;;3.70;3.20;;;;;;;;;;5088783;28;20475;-70
2022/09/11 10:14:20;;;;;;;5.83;4.57;;;;;;;;;;5087428;28;20469;-70
2022/09/11 10:17:32;;;;;;;3.47;3.17;;;;;;;;;;5087890;28;20459;-71
2022/09/11 10:20:25;;;;;;;3.37;3.07;;;;;;;;;;5082481;28;20845;-70
2022/09/11 10:23:22;;;;;;;3.80;3.50;;;;;;;;;;5088433;28;20483;-71
2022/09/11 10:26:15;;;;;;;3.13;2.93;;;;;;;;;;5092399;28;20437;-71
2022/09/11 10:29:07;;;;;;;3.10;2.90;;;;;;;;;;5085252;28;20819;-70
2022/09/11 10:31:56;;;;;;;3.40;3.10;;;;;;;;;;5084186;28;20475;-71
2022/09/11 10:34:45;;;;;;;3.50;3.30;;;;;;;;;;5090422;28;20455;-70
2022/09/11 10:37:35;;;;;;;3.20;3.00;;;;;;;;;;5090274;28;20477;-71
2022/09/11 10:40:24;;;;;;;3.57;3.27;;;;;;;;;;5078378;28;20471;-71
2022/09/11 10:43:21;;;;;;;3.30;3.10;;;;;;;;;;5080804;28;20998;-71
2022/09/11 10:46:31;;;;;;;2.43;2.33;;;;;;;;;;5078955;28;20445;-71
2022/09/11 10:49:27;;;;;;;2.57;2.43;;;;;;;;;;5086656;28;20444;-71
2022/09/11 10:52:21;;;;;;;2.27;2.17;;;;;;;;;;5088911;28;20847;-71
2022/09/11 10:55:14;;;;;;;2.30;2.10;;;;;;;;;;5094195;28;20880;-71
2022/09/11 10:58:04;;;;;;;2.40;2.30;;;;;;;;;;5075495;28;20551;-71
2022/09/11 11:00:55;;;;;;;2.10;2.00;;;;;;;;;;5089396;28;20451;-71
2022/09/11 11:03:44;;;;;;;2.00;1.90;;;;;;;;;;5092141;28;20471;-71
2022/09/11 11:06:39;;;;;;;2.30;2.20;;;;;;;;;;5091304;28;20526;-71
2022/09/11 11:09:31;;;;;;;2.13;2.03;;;;;;;;;;5091434;28;20455;-71
2022/09/11 11:12:31;;;;;;;2.00;1.90;;;;;;;;;;5089221;28;20468;-71
2022/09/11 11:15:29;;;;;;;1.90;1.80;;;;;;;;;;5087544;28;20476;-71
2022/09/11 11:18:25;;;;;;;1.87;1.77;;;;;;;;;;5085730;28;20479;-70
2022/09/11 11:21:19;;;;;;;1.90;1.80;;;;;;;;;;5091951;28;20479;-71
2022/09/11 11:24:24;;;;;;;1.60;1.50;;;;;;;;;;5089716;28;20962;-72
2022/09/11 11:27:28;;;;;;;1.80;1.70;;;;;;;;;;5088800;28;20480;-72
2022/09/11 11:30:18;;;;;;;1.57;1.57;;;;;;;;;;5094498;28;20460;-72
2022/09/11 11:33:16;;;;;;;1.47;1.37;;;;;;;;;;5089413;28;23195;-72
2022/09/11 11:36:09;;;;;;;1.60;1.50;;;;;;;;;;5095190;28;20473;-72
2022/09/11 11:39:00;;;;;;;2.13;1.40;;;;;;;;;;5098482;28;20951;-72
2022/09/11 11:41:52;;;;;;;1.70;1.60;;;;;;;;;;5092329;28;20496;-72
2022/09/11 11:44:47;;;;;;;1.70;1.60;;;;;;;;;;5094103;28;20460;-72
2022/09/11 11:47:37;;;;;;;1.83;1.73;;;;;;;;;;5092096;28;20444;-71
2022/09/11 11:50:28;;;;;;;1.80;1.70;;;;;;;;;;5106408;28;20452;-72
2022/09/11 11:53:21;;;;;;;1.53;1.50;;;;;;;;;;5108252;28;20476;-70
2022/09/11 11:56:15;;;;;;;1.60;1.50;;;;;;;;;;5072771;28;20492;-70
2022/09/11 11:59:11;;;;;;;3.73;1.90;;;;;;;;;;5081215;28;20955;-70
2022/09/11 12:02:03;;;;;;;13.83;2.13;;;;;;;;;;5093882;28;20485;-70
2022/09/11 12:04:54;;;;;;;2.00;1.90;;;;;;;;;;5096312;28;20529;-70
2022/09/11 12:07:46;;;;;;;1.60;1.60;;;;;;;;;;5093182;28;20460;-73
2022/09/11 12:10:36;;;;;;;2.70;1.50;;;;;;;;;;5091711;28;20552;-70
2022/09/11 12:13:29;;;;;;;1.53;1.43;;;;;;;;;;5097001;28;20475;-71
2022/09/11 12:16:20;;;;;;;1.87;1.77;;;;;;;;;;5092730;28;20580;-71
2022/09/11 12:19:15;;;;;;;2.00;1.77;;;;;;;;;;5090385;28;20452;-70
2022/09/11 12:22:05;;;;;;;1.90;1.80;;;;;;;;;;5087963;28;20473;-73
2022/09/11 12:24:57;;;;;;;2.53;1.77;;;;;;;;;;5093243;28;20456;-71
2022/09/11 12:27:54;;;;;;;1.77;1.67;;;;;;;;;;5096006;28;20448;-71
2022/09/11 12:30:57;;;;;;;2.07;1.70;;;;;;;;;;5087274;28;21006;-70
2022/09/11 12:33:55;;;;;;;1.53;1.43;;;;;;;;;;5080803;28;20479;-71
2022/09/11 12:36:52;;;;;;;1.57;1.47;;;;;;;;;;5091073;28;20480;-71
2022/09/11 12:39:48;;;;;;;1.40;1.30;;;;;;;;;;5093832;28;20455;-70
2022/09/11 12:42:48;;;;;;;1.50;1.40;;;;;;;;;;5094243;28;20477;-71
2022/09/11 12:45:37;;;;;;;1.30;1.30;;;;;;;;;;5088921;28;20466;-71
2022/09/11 12:48:36;;;;;;;1.50;1.50;;;;;;;;;;5097200;28;20479;-71
2022/09/11 12:51:25;;;;;;;1.43;1.30;;;;;;;;;;5095593;28;20464;-71
2022/09/11 12:54:17;;;;;;;1.20;1.20;;;;;;;;;;5094230;28;20479;-71
2022/09/11 12:57:06;;;;;;;1.40;1.30;;;;;;;;;;5094801;28;20491;-71
2022/09/11 13:00:01;;;;;;;1.67;1.57;;;20.40;99.90;;;;;;5091549;28;20954;-71
2022/09/11 13:02:54;;;;;;;1.60;1.50;;;21.90;99.90;;;;;;5085249;28;20479;-71
2022/09/11 13:05:44;;;;;;;1.67;1.57;;;21.80;99.90;;;;;;5085970;28;20468;-71
2022/09/11 13:08:36;;;;;;;1.77;1.67;;;21.70;99.90;;;;;;5082227;28;20448;-71
2022/09/11 13:11:46;;;;;;;1.60;1.50;;;21.60;99.90;;;;;;5095025;28;20478;-71
2022/09/11 13:14:49;;;;;;;1.23;1.20;;;21.50;99.90;;;;;;5089716;28;21007;-71
2022/09/11 13:17:46;;;;;;;1.70;1.60;;;21.40;99.90;;;;;;5088063;28;20472;-71
2022/09/11 13:20:35;;;;;;;1.27;1.23;;;21.40;99.90;;;;;;5092776;28;20822;-71
2022/09/11 13:23:26;;;;;;;1.30;1.30;;;21.90;99.90;;;;;;5096397;28;20475;-71
2022/09/11 13:26:23;;;;;;;1.30;1.20;;;22.60;99.90;;;;;;5092748;28;20460;-71
2022/09/11 13:29:14;;;;;;;1.20;1.20;;;23.40;99.90;;;;;;5092770;28;20464;-71
2022/09/11 13:32:10;;;;;;;1.07;0.97;;;24.10;99.90;;;;;;5088346;28;20854;-71
2022/09/11 13:35:09;;;;;;;1.13;1.10;;;24.90;99.90;;;;;;5079737;28;20899;-71
2022/09/11 13:38:02;;;;;;;2.63;1.27;;;25.40;99.90;;;;;;5087835;28;20478;-71
2022/09/11 13:40:55;;;;;;;1.70;1.07;;;25.40;99.90;;;;;;5092303;28;20956;-72
2022/09/11 13:43:46;;;;;;;1.00;1.00;;;25.70;99.90;;;;;;5087985;28;20468;-71
2022/09/11 13:46:49;;;;;;;0.80;0.80;;;26.10;99.90;;;;;;5090768;28;20445;-71
2022/09/11 13:49:40;;;;;;;1.30;1.20;;;26.30;99.90;;;;;;5094159;28;20452;-71
2022/09/11 13:52:32;;;;;;;1.20;1.20;;;25.80;99.90;;;;;;5087099;28;20467;-71
2022/09/11 13:55:25;;;;;;;1.10;1.10;;;25.40;99.90;;;;;;5089627;28;20452;-71
2022/09/11 13:58:23;;;;;;;1.10;1.10;;;24.90;99.90;;;;;;5093338;28;21031;-71
2022/09/11 14:01:13;;;;;;;1.27;1.20;;;24.40;99.90;;;;;;5090486;28;20487;-71
2022/09/11 14:04:04;;;;;;;1.33;1.33;;;24.10;99.90;;;;;;5092485;28;21007;-71
2022/09/11 14:06:53;;;;;;;1.70;1.60;;;23.70;99.90;;;;;;5095513;28;20462;-71
2022/09/11 14:09:41;;;;;;;1.20;1.10;;;23.50;99.90;;;;;;5086923;28;20435;-71
2022/09/11 14:12:30;;;;;;;1.40;1.30;;;23.20;99.90;;;;;;5080986;28;21696;-71
2022/09/11 14:15:24;;;;;;;1.30;1.20;;;23.10;99.90;;;;;;5094378;28;20448;-71
2022/09/11 14:18:19;;;;;;;1.40;1.40;;;22.90;99.90;;;;;;5088865;28;20495;-71
2022/09/11 14:21:15;;;;;;;1.33;1.30;;;22.80;99.90;;;;;;5087651;28;20480;-71
2022/09/11 14:24:17;;;;;;;1.60;1.50;;;22.70;99.90;;;;;;5094168;28;20491;-71
2022/09/11 14:27:41;;;;;;;1.60;1.53;;;22.60;99.90;;;;;;5088908;28;20452;-71
2022/09/11 14:30:33;;;;;;;1.57;1.47;;;22.60;99.90;;;;;;5083958;28;20444;-71
2022/09/11 14:33:25;;;;;;;1.53;1.43;;;22.50;99.90;;;;;;5090442;28;20480;-71
2022/09/11 14:36:18;;;;;;;1.20;1.20;;;22.40;99.90;;;;;;5083376;28;24199;-71
2022/09/11 14:39:12;;;;;;;1.43;1.33;;;22.50;99.90;;;;;;5076250;28;20828;-70
2022/09/11 14:42:02;;;;;;;1.60;1.50;;;22.60;99.90;;;;;;5091090;28;20472;-71
2022/09/11 14:44:52;;;;;;;1.40;1.37;;;22.60;99.90;;;;;;5091097;28;20448;-71
2022/09/11 14:47:40;;;;;;;1.47;1.37;;;22.70;99.90;;;;;;5091998;28;20827;-71
2022/09/11 14:50:29;;;;;;;1.27;1.20;;;22.80;99.90;;;;;;5091888;28;20444;-71
2022/09/11 14:53:27;;;;;;;1.57;1.30;;;22.90;99.90;;;;;;5089891;28;20477;-70
2022/09/11 14:56:16;;;;;;;1.50;1.40;;;23.10;99.90;;;;;;5090384;28;20441;-70
2022/09/11 14:59:04;;;;;;;1.50;1.40;;;23.20;99.90;;;;;;5089542;28;20477;-71
2022/09/11 15:01:53;;;;;;;1.80;1.63;;;23.20;99.90;;;;;;5088565;28;20464;-70
2022/09/11 15:04:41;;;;;;;1.43;1.33;;;23.40;99.90;;;;;;5095311;28;20908;-71
2022/09/11 15:07:29;;;;;;;1.70;1.60;;;23.50;99.90;;;;;;5088710;28;20441;-71
2022/09/11 15:10:22;;;;;;;1.40;1.30;;;23.50;99.90;;;;;;5092932;28;20462;-70
2022/09/11 15:13:10;;;;;;;1.10;1.10;;;23.30;99.90;;;;;;5089605;28;20483;-70
2022/09/11 15:15:59;;;;;;;1.73;1.40;;;23.10;99.90;;;;;;5094601;28;20452;-70
2022/09/11 15:18:48;;;;;;;1.30;1.20;;;23.00;99.90;;;;;;5092431;28;20485;-70
2022/09/11 15:21:37;;;;;;;1.50;1.40;;;22.90;99.90;;;;;;5094222;28;20476;-70
2022/09/11 15:24:26;;;;;;;1.30;1.30;;;22.80;99.90;;;;;;5098908;28;21011;-70
2022/09/11 15:27:14;;;;;;;1.07;1.07;;;22.70;99.90;;;;;;5090142;28;20579;-70
2022/09/11 15:30:02;;;;;;;1.70;1.60;;;22.70;99.90;;;;;;5086610;28;20978;-71
2022/09/11 15:32:52;;;;;;;1.67;1.50;;;22.60;99.90;;;;;;5095245;28;21136;-71
2022/09/11 15:35:42;;;;;;;1.30;1.30;;;22.50;99.90;;;;;;5070761;28;20445;-72
2022/09/11 15:38:30;;;;;;;2.67;1.23;;;22.40;99.90;;;;;;5079939;28;21083;-73
2022/09/11 15:41:20;;;;;;;1.40;1.30;;;22.40;99.90;;;;;;5078794;28;20479;-72
2022/09/11 15:44:10;;;;;;;1.20;1.10;;;22.30;99.90;;;;;;5085243;28;20465;-73
2022/09/11 15:47:00;;;;;;;1.60;1.50;;;22.20;99.90;;;;;;5083387;28;20456;-74
2022/09/11 15:49:50;;;;;;;1.30;1.30;;;22.20;99.90;;;;;;5082568;28;20453;-74
2022/09/11 15:52:41;;;;;;;1.20;1.07;;;22.20;99.90;;;;;;5068228;28;21038;-73
2022/09/11 15:55:29;;;;;;;1.70;1.40;;;22.20;99.90;;;;;;5060445;28;20452;-72
2022/09/11 15:58:20;;;;;;;1.17;1.10;;;22.10;99.90;;;;;;5078657;28;20479;-76
2022/09/11 16:01:16;;;;;;;1.47;1.37;;;22.10;99.90;;;;;;5080440;28;20472;-76
2022/09/11 16:04:07;;;;;;;1.20;1.20;;;22.10;99.90;;;;;;5077279;28;20485;-75
2022/09/11 16:06:55;;;;;;;1.30;1.20;;;22.00;99.90;;;;;;5076911;28;20449;-74
2022/09/11 16:09:45;;;;;;;1.50;1.40;;;22.00;99.90;;;;;;5076733;28;20830;-75
2022/09/11 16:12:33;;;;;;;1.80;1.70;;;22.00;99.90;;;;;;5076091;28;20483;-74
2022/09/11 16:15:21;;;;;;;2.13;1.93;;;22.00;99.90;;;;;;5088706;28;20634;-75
2022/09/11 16:18:11;;;;;;;2.00;1.47;;;21.90;99.90;;;;;;5090151;28;20480;-74
2022/09/11 16:21:00;;;;;;;1.50;1.40;;;21.90;99.90;;;;;;5082583;28;20967;-74
2022/09/11 16:23:48;;;;;;;1.20;1.20;;;21.90;99.90;;;;;;5083459;28;20484;-72
2022/09/11 16:26:46;;;;;;;1.20;1.20;;;21.80;99.90;;;;;;5086421;28;22403;-72
2022/09/11 16:29:34;;;;;;;1.40;1.30;;;21.80;99.90;;;;;;5081993;28;20449;-70
2022/09/11 16:32:42;;;;;;;1.30;1.20;;;21.70;99.90;;;;;;5080925;28;20479;-71
2022/09/11 16:35:31;;;;;;;1.20;1.20;;;21.60;99.90;;;;;;5081480;28;20990;-72